createdAt,value
2018-11-21T00:01:23.309Z,36.80
2018-11-21T00:03:55.483Z,33.50
2018-11-21T00:06:27.838Z,33.97
2018-11-21T00:09:02.045Z,32.40
2018-11-21T00:11:32.957Z,36.10
2018-11-21T00:14:06.039Z,37.00
2018-11-21T00:16:41.670Z,33.00
2018-11-21T00:19:12.752Z,35.23
2018-11-21T00:21:46.177Z,36.03
2018-11-21T00:24:26.613Z,31.33
2018-11-21T00:26:56.757Z,39.93
2018-11-21T00:29:28.015Z,35.63
2018-11-21T00:31:59.530Z,32.07
2018-11-21T00:34:30.552Z,35.83
2018-11-21T00:37:02.511Z,30.83
2018-11-21T00:39:33.513Z,33.73
2018-11-21T00:42:04.033Z,34.27
2018-11-21T00:44:37.851Z,32.50
2018-11-21T00:47:09.156Z,36.63
2018-11-21T00:49:41.949Z,32.37
2018-11-21T00:52:12.561Z,31.47
2018-11-21T00:54:42.519Z,30.40
2018-11-21T00:57:19.411Z,34.97
2018-11-21T00:59:51.757Z,31.80
2018-11-21T01:02:25.214Z,38.37
2018-11-21T01:04:57.741Z,30.23
2018-11-21T01:07:32.537Z,40.37
2018-11-21T01:10:03.915Z,30.43
2018-11-21T01:12:33.527Z,35.70
2018-11-21T01:15:03.504Z,38.77
2018-11-21T01:17:36.780Z,39.53
2018-11-21T01:20:09.474Z,40.67
2018-11-21T01:22:38.957Z,36.90
2018-11-21T01:25:09.583Z,36.87
2018-11-21T01:27:44.772Z,39.97
2018-11-21T01:30:28.900Z,38.60
2018-11-21T01:33:01.959Z,37.27
2018-11-21T01:35:35.668Z,47.37
2018-11-21T01:38:16.976Z,43.77
2018-11-21T01:40:46.768Z,48.30
2018-11-21T01:43:20.619Z,40.57
2018-11-21T01:45:54.280Z,50.07
2018-11-21T01:48:27.276Z,40.43
2018-11-21T01:50:59.752Z,46.23
2018-11-21T01:53:30.126Z,44.50
2018-11-21T01:56:02.096Z,41.03
2018-11-21T01:58:32.383Z,43.53
2018-11-21T02:01:05.131Z,44.00
2018-11-21T02:03:37.909Z,44.03
2018-11-21T02:06:09.038Z,38.90
2018-11-21T02:08:38.920Z,39.40
2018-11-21T02:11:12.302Z,42.73
2018-11-21T02:13:43.166Z,43.43
2018-11-21T02:16:18.646Z,48.83
2018-11-21T02:18:54.322Z,40.77
2018-11-21T02:21:25.108Z,40.80
2018-11-21T02:23:57.791Z,41.20
2018-11-21T02:26:30.353Z,45.53
2018-11-21T02:29:03.304Z,51.83
2018-11-21T02:31:35.555Z,47.37
2018-11-21T02:34:08.134Z,45.20
2018-11-21T02:36:39.083Z,41.23
2018-11-21T02:39:11.945Z,43.63
2018-11-21T02:41:44.602Z,39.90
2018-11-21T02:44:18.278Z,40.80
2018-11-21T02:46:47.832Z,42.57
2018-11-21T02:49:18.040Z,41.37
2018-11-21T02:51:51.274Z,38.03
2018-11-21T02:54:22.945Z,40.97
2018-11-21T02:57:18.864Z,40.80
2018-11-21T02:59:49.427Z,42.90
2018-11-21T03:02:18.987Z,45.30
2018-11-21T03:04:49.815Z,47.10
2018-11-21T03:07:21.615Z,48.43
2018-11-21T03:09:51.290Z,44.80
2018-11-21T03:12:23.335Z,42.20
2018-11-21T03:14:57.550Z,49.50
2018-11-21T03:17:40.950Z,46.13
2018-11-21T03:20:11.357Z,47.87
2018-11-21T03:22:44.888Z,45.27
2018-11-21T03:25:19.698Z,41.90
2018-11-21T03:27:52.659Z,50.47
2018-11-21T03:30:24.150Z,41.87
2018-11-21T03:32:59.070Z,40.33
2018-11-21T03:35:29.071Z,44.30
2018-11-21T03:38:00.194Z,44.13
2018-11-21T03:40:43.076Z,44.07
2018-11-21T03:43:13.687Z,35.87
2018-11-21T03:45:44.071Z,36.70
2018-11-21T03:48:14.693Z,42.90
2018-11-21T03:50:45.255Z,41.10
2018-11-21T03:53:16.094Z,36.90
2018-11-21T03:55:55.048Z,40.43
2018-11-21T03:58:25.415Z,40.40
2018-11-21T04:00:57.385Z,42.73
2018-11-21T04:03:46.900Z,39.23
2018-11-21T04:06:18.283Z,45.73
2018-11-21T04:08:49.396Z,44.57
2018-11-21T04:11:20.036Z,41.27
2018-11-21T04:13:50.602Z,38.10
2018-11-21T04:16:21.186Z,38.83
2018-11-21T04:18:55.349Z,41.60
2018-11-21T04:21:25.581Z,37.70
2018-11-21T04:23:57.367Z,35.50
2018-11-21T04:26:27.425Z,33.60
2018-11-21T04:28:57.597Z,36.03
2018-11-21T04:31:31.482Z,33.87
2018-11-21T04:34:01.552Z,42.10
2018-11-21T04:36:32.595Z,40.73
2018-11-21T04:39:04.493Z,42.50
2018-11-21T04:41:35.999Z,43.47
2018-11-21T04:44:08.452Z,45.27
2018-11-21T04:46:41.521Z,40.90
2018-11-21T04:49:11.563Z,41.53
2018-11-21T04:51:41.495Z,42.63
2018-11-21T04:54:12.644Z,48.17
2018-11-21T04:56:45.389Z,42.93
2018-11-21T04:59:16.614Z,51.70
2018-11-21T05:01:46.764Z,44.83
2018-11-21T05:04:20.486Z,39.10
2018-11-21T05:06:52.537Z,45.10
2018-11-21T05:09:24.634Z,41.60
2018-11-21T05:11:54.094Z,42.13
2018-11-21T05:14:24.590Z,36.57
2018-11-21T05:16:54.279Z,43.07
2018-11-21T05:19:23.804Z,38.77
2018-11-21T05:21:54.388Z,40.50
2018-11-21T05:24:33.207Z,39.00
2018-11-21T05:27:03.588Z,34.10
2018-11-21T05:29:33.728Z,32.73
2018-11-21T05:32:04.750Z,34.43
2018-11-21T05:34:36.091Z,30.60
2018-11-21T05:37:07.437Z,33.80
2018-11-21T05:39:38.871Z,40.37
2018-11-21T05:42:10.009Z,33.40
2018-11-21T05:44:40.773Z,35.07
2018-11-21T05:47:15.400Z,33.20
2018-11-21T05:49:45.164Z,32.07
2018-11-21T05:52:16.117Z,36.87
2018-11-21T05:54:46.244Z,36.93
2018-11-21T05:57:16.737Z,35.17
2018-11-21T05:59:47.558Z,37.43
2018-11-21T06:02:18.306Z,34.93
2018-11-21T06:04:48.989Z,36.63
2018-11-21T06:07:18.869Z,41.27
2018-11-21T06:09:52.385Z,31.50
2018-11-21T06:12:23.842Z,33.97
2018-11-21T06:14:53.884Z,35.93
2018-11-21T06:17:42.393Z,36.87
2018-11-21T06:20:29.476Z,32.43
2018-11-21T06:22:59.532Z,37.63
2018-11-21T06:25:30.087Z,34.13
2018-11-21T06:28:01.281Z,38.73
2018-11-21T06:30:33.539Z,33.87
2018-11-21T06:33:05.217Z,37.20
2018-11-21T06:35:35.936Z,36.03
2018-11-21T06:38:05.867Z,33.93
2018-11-21T06:40:37.024Z,32.80
2018-11-21T06:43:08.429Z,34.20
2018-11-21T06:45:40.810Z,31.07
2018-11-21T06:48:11.951Z,34.90
2018-11-21T06:50:43.007Z,33.93
2018-11-21T06:53:17.530Z,34.10
2018-11-21T06:55:47.431Z,36.03
2018-11-21T06:58:23.811Z,34.30
2018-11-21T07:00:54.302Z,38.03
2018-11-21T07:03:25.106Z,34.10
2018-11-21T07:05:54.674Z,40.33
2018-11-21T07:08:26.079Z,36.07
2018-11-21T07:10:57.093Z,37.47
2018-11-21T07:13:42.348Z,42.83
2018-11-21T07:16:11.852Z,35.43
2018-11-21T07:18:43.606Z,35.53
2018-11-21T07:21:14.668Z,37.60
2018-11-21T07:23:45.168Z,33.97
2018-11-21T07:26:15.260Z,36.57
2018-11-21T07:28:45.437Z,34.00
2018-11-21T07:31:17.386Z,33.00
2018-11-21T07:33:47.212Z,36.73
2018-11-21T07:36:23.186Z,35.80
2018-11-21T07:38:54.073Z,34.73
2018-11-21T07:41:25.451Z,38.63
2018-11-21T07:43:58.027Z,33.20
2018-11-21T07:46:29.479Z,39.80
2018-11-21T07:49:00.080Z,31.53
2018-11-21T07:51:30.870Z,31.67
2018-11-21T07:54:01.364Z,38.80
2018-11-21T07:57:20.663Z,37.73
2018-11-21T08:00:45.780Z,33.80
2018-11-21T08:03:23.749Z,29.40
2018-11-21T08:06:02.129Z,31.00
2018-11-21T08:09:03.475Z,34.70
2018-11-21T08:11:46.062Z,34.10
2018-11-21T08:14:35.578Z,32.77
2018-11-21T08:17:32.337Z,30.97
2018-11-21T08:20:21.006Z,31.13
2018-11-21T08:23:18.883Z,31.93
2018-11-21T08:26:25.523Z,38.33
2018-11-21T08:28:55.627Z,29.97
2018-11-21T08:31:27.019Z,31.30
2018-11-21T08:33:56.629Z,28.10
2018-11-21T08:36:26.504Z,28.30
2018-11-21T08:38:57.541Z,34.70
2018-11-21T08:41:45.707Z,32.23
2018-11-21T08:44:29.335Z,27.40
2018-11-21T08:46:59.374Z,41.13
2018-11-21T08:49:29.702Z,37.07
2018-11-21T08:51:59.955Z,32.00
2018-11-21T08:54:31.319Z,32.33
2018-11-21T08:57:04.844Z,30.87
2018-11-21T08:59:35.579Z,30.30
2018-11-21T09:02:06.960Z,30.13
2018-11-21T09:04:40.803Z,30.70
2018-11-21T09:07:13.500Z,27.90
2018-11-21T09:09:44.589Z,29.10
2018-11-21T09:12:15.617Z,33.37
2018-11-21T09:14:46.665Z,34.40
2018-11-21T09:17:16.783Z,28.30
2018-11-21T09:19:48.797Z,27.77
2018-11-21T09:22:18.694Z,27.10
2018-11-21T09:24:49.850Z,29.10
2018-11-21T09:27:19.783Z,30.93
2018-11-21T09:30:01.521Z,35.87
2018-11-21T09:32:32.888Z,31.30
2018-11-21T09:35:04.406Z,33.57
2018-11-21T09:37:37.066Z,30.80
2018-11-21T09:40:20.739Z,31.00
2018-11-21T09:42:52.154Z,35.10
2018-11-21T09:45:24.531Z,28.03
2018-11-21T09:47:54.322Z,31.40
2018-11-21T09:50:31.834Z,30.40
2018-11-21T09:53:01.507Z,30.80
2018-11-21T09:55:31.977Z,36.23
2018-11-21T09:58:02.967Z,31.27
2018-11-21T10:01:10.141Z,30.80
2018-11-21T10:03:40.389Z,27.17
2018-11-21T10:06:36.505Z,38.10
2018-11-21T10:09:16.159Z,33.90
2018-11-21T10:11:54.493Z,35.00
2018-11-21T10:14:25.040Z,34.10
2018-11-21T10:16:54.450Z,30.47
2018-11-21T10:19:24.062Z,32.93
2018-11-21T10:21:54.538Z,35.07
2018-11-21T10:24:25.482Z,32.77
2018-11-21T10:26:55.045Z,32.30
2018-11-21T10:29:24.991Z,33.70
2018-11-21T10:31:54.423Z,38.00
2018-11-21T10:34:27.055Z,33.67
2018-11-21T10:36:56.573Z,29.47
2018-11-21T10:39:29.059Z,30.83
2018-11-21T10:41:59.752Z,33.17
2018-11-21T10:44:30.067Z,31.50
2018-11-21T10:47:00.919Z,33.63
2018-11-21T10:49:31.356Z,35.37
2018-11-21T10:52:01.541Z,31.60
2018-11-21T10:54:32.032Z,34.37
2018-11-21T10:57:19.726Z,31.40
2018-11-21T10:59:50.844Z,34.67
2018-11-21T11:02:39.859Z,32.20
2018-11-21T11:05:32.671Z,30.20
2018-11-21T11:08:21.940Z,33.60
2018-11-21T11:11:15.607Z,33.40
2018-11-21T11:14:04.108Z,35.10
2018-11-21T11:16:55.953Z,31.00
2018-11-21T11:20:00.417Z,25.97
2018-11-21T11:22:49.302Z,29.83
2018-11-21T11:25:58.972Z,31.93
2018-11-21T11:28:48.413Z,30.07
2018-11-21T11:31:57.014Z,30.87
2018-11-21T11:34:55.522Z,30.93
2018-11-21T11:37:44.856Z,33.73
2018-11-21T11:40:32.526Z,33.03
2018-11-21T11:43:24.851Z,27.53
2018-11-21T11:46:12.073Z,33.23
2018-11-21T11:49:00.868Z,32.30
2018-11-21T11:51:48.775Z,28.60
2018-11-21T11:54:34.738Z,28.53
2018-11-21T11:57:41.813Z,28.67
2018-11-21T12:00:37.133Z,27.23
2018-11-21T12:03:25.015Z,31.40
2018-11-21T12:06:12.332Z,32.63
2018-11-21T12:09:00.758Z,27.27
2018-11-21T12:11:53.522Z,36.37
2018-11-21T12:14:43.467Z,29.17
2018-11-21T12:17:44.216Z,35.43
2018-11-21T12:20:31.851Z,33.93
2018-11-21T12:23:20.413Z,32.97
2018-11-21T12:26:13.841Z,31.17
2018-11-21T12:29:15.095Z,30.97
2018-11-21T12:32:06.035Z,31.40
2018-11-21T12:35:13.544Z,32.30
2018-11-21T12:38:23.159Z,29.13
2018-11-21T12:41:10.090Z,30.13
2018-11-21T12:44:09.921Z,28.13
2018-11-21T12:47:17.477Z,27.17
2018-11-21T12:50:01.218Z,29.27
2018-11-21T12:52:45.453Z,27.27
2018-11-21T12:55:33.416Z,31.70
2018-11-21T12:58:19.544Z,24.27
2018-11-21T13:01:18.143Z,27.87
2018-11-21T13:04:14.102Z,26.63
2018-11-21T13:06:58.825Z,33.03
2018-11-21T13:10:08.520Z,29.97
2018-11-21T13:13:10.120Z,31.77
2018-11-21T13:16:03.796Z,31.97
2018-11-21T13:19:04.724Z,29.40
2018-11-21T13:21:54.165Z,30.67
2018-11-21T13:25:15.853Z,31.87
2018-11-21T13:28:28.003Z,28.93
2018-11-21T13:31:15.553Z,29.17
2018-11-21T13:34:24.793Z,31.23
2018-11-21T13:37:13.649Z,38.23
2018-11-21T13:40:14.978Z,26.30
2018-11-21T13:43:02.834Z,31.30
2018-11-21T13:46:06.661Z,30.90
2018-11-21T13:48:58.062Z,25.87
2018-11-21T13:51:51.684Z,28.47
2018-11-21T13:55:01.986Z,32.03
2018-11-21T13:57:36.595Z,33.80
2018-11-21T14:00:11.152Z,34.20
2018-11-21T14:02:45.508Z,35.17
2018-11-21T14:05:22.241Z,28.67
2018-11-21T14:07:52.887Z,29.23
2018-11-21T14:10:22.793Z,27.90
2018-11-21T14:12:56.573Z,28.67
2018-11-21T14:15:29.960Z,28.80
2018-11-21T14:18:01.107Z,31.70
2018-11-21T14:20:33.916Z,30.93
2018-11-21T14:23:08.587Z,34.70
2018-11-21T14:25:39.047Z,30.60
2018-11-21T14:28:12.042Z,29.97
2018-11-21T14:30:55.226Z,33.03
2018-11-21T14:33:25.765Z,28.40
2018-11-21T14:35:56.697Z,28.90
2018-11-21T14:38:26.948Z,29.60
2018-11-21T14:41:01.539Z,33.73
2018-11-21T14:43:32.024Z,32.33
2018-11-21T14:46:03.300Z,31.20
2018-11-21T14:48:32.953Z,33.40
2018-11-21T14:51:04.566Z,38.40
2018-11-21T14:53:35.348Z,27.30
2018-11-21T14:56:05.057Z,30.37
2018-11-21T14:58:52.942Z,30.97
2018-11-21T15:01:25.115Z,35.00
2018-11-21T15:03:54.970Z,38.30
2018-11-21T15:06:26.189Z,40.20
2018-11-21T15:09:00.741Z,38.30
2018-11-21T15:11:33.276Z,38.40
2018-11-21T15:14:21.188Z,44.10
2018-11-21T15:16:52.284Z,45.07
2018-11-21T15:19:25.690Z,45.47
2018-11-21T15:21:57.496Z,49.53
2018-11-21T15:24:27.677Z,42.00
2018-11-21T15:26:58.056Z,40.80
2018-11-21T15:29:30.667Z,42.23
2018-11-21T15:32:02.285Z,41.20
2018-11-21T15:34:33.577Z,53.63
2018-11-21T15:37:03.196Z,48.47
2018-11-21T15:39:33.996Z,44.50
2018-11-21T15:42:07.115Z,45.67
2018-11-21T15:44:54.850Z,52.80
2018-11-21T15:47:27.342Z,46.73
2018-11-21T15:49:59.214Z,55.20
2018-11-21T15:52:30.161Z,45.00
2018-11-21T15:55:03.569Z,45.63
2018-11-21T15:57:43.838Z,48.63
2018-11-21T16:00:20.773Z,50.20
2018-11-21T16:02:54.373Z,49.37
2018-11-21T16:05:26.563Z,45.73
2018-11-21T16:07:57.541Z,46.57
2018-11-21T16:10:44.530Z,49.13
2018-11-21T16:13:16.581Z,51.03
2018-11-21T16:15:54.573Z,54.07
2018-11-21T16:18:26.010Z,45.33
2018-11-21T16:20:56.870Z,51.57
2018-11-21T16:23:28.314Z,53.83
2018-11-21T16:25:59.175Z,50.37
2018-11-21T16:28:33.385Z,49.33
2018-11-21T16:31:03.975Z,49.13
2018-11-21T16:33:34.734Z,55.00
2018-11-21T16:36:06.287Z,54.40
2018-11-21T16:38:37.532Z,52.20
2018-11-21T16:41:11.056Z,54.20
2018-11-21T16:43:48.170Z,53.43
2018-11-21T16:46:18.474Z,51.00
2018-11-21T16:48:48.887Z,47.20
2018-11-21T16:51:19.909Z,53.43
2018-11-21T16:53:50.490Z,54.70
2018-11-21T16:56:21.116Z,52.30
2018-11-21T16:58:54.178Z,57.00
2018-11-21T17:01:25.984Z,56.30
2018-11-21T17:03:55.639Z,57.00
2018-11-21T17:06:31.643Z,55.77
2018-11-21T17:09:05.179Z,53.10
2018-11-21T17:11:37.875Z,53.37
2018-11-21T17:14:07.889Z,54.70
2018-11-21T17:16:40.067Z,54.90
2018-11-21T17:19:09.805Z,60.17
2018-11-21T17:21:47.095Z,59.60
2018-11-21T17:24:17.784Z,56.03
2018-11-21T17:26:48.106Z,63.97
2018-11-21T17:29:18.698Z,57.13
2018-11-21T17:31:49.503Z,58.10
2018-11-21T17:34:31.111Z,60.50
2018-11-21T17:37:04.462Z,59.37
2018-11-21T17:39:33.935Z,61.80
2018-11-21T17:42:08.774Z,58.33
2018-11-21T17:44:40.808Z,60.43
2018-11-21T17:47:11.405Z,56.63
2018-11-21T17:52:17.779Z,70.17
2018-11-21T17:54:48.987Z,67.07
2018-11-21T17:57:27.889Z,67.57
2018-11-21T18:00:04.971Z,64.83
2018-11-21T18:02:35.727Z,65.83
2018-11-21T18:05:25.562Z,69.83
2018-11-21T18:07:55.783Z,68.40
2018-11-21T18:10:31.706Z,62.50
2018-11-21T18:13:20.611Z,67.53
2018-11-21T18:15:56.402Z,70.57
2018-11-21T18:18:26.974Z,74.43
2018-11-21T18:20:58.273Z,71.60
2018-11-21T18:23:33.899Z,74.33
2018-11-21T18:26:07.297Z,81.17
2018-11-21T18:28:43.688Z,75.57
2018-11-21T18:31:15.734Z,77.87
2018-11-21T18:33:46.220Z,85.13
2018-11-21T18:36:17.548Z,79.27
2018-11-21T18:38:48.466Z,83.70
2018-11-21T18:41:18.687Z,82.97
2018-11-21T18:43:52.324Z,85.77
2018-11-21T18:46:40.735Z,81.13
2018-11-21T18:49:14.144Z,82.40
2018-11-21T18:51:45.011Z,79.57
2018-11-21T18:54:15.814Z,85.97
2018-11-21T18:57:47.401Z,79.90
2018-11-21T19:00:22.777Z,87.23
2018-11-21T19:02:53.069Z,89.83
2018-11-21T19:05:23.107Z,89.00
2018-11-21T19:07:56.409Z,97.47
2018-11-21T19:10:31.197Z,74.60
2018-11-21T19:13:02.362Z,90.67
2018-11-21T19:15:32.253Z,76.43
2018-11-21T19:18:05.755Z,75.23
2018-11-21T19:20:42.784Z,82.57
2018-11-21T19:23:13.505Z,76.57
2018-11-21T19:25:46.340Z,80.13
2018-11-21T19:28:20.087Z,80.23
2018-11-21T19:30:53.327Z,87.50
2018-11-21T19:33:27.658Z,76.97
2018-11-21T19:35:58.111Z,86.80
2018-11-21T19:38:48.406Z,78.13
2018-11-21T19:41:18.392Z,86.47
2018-11-21T19:43:58.170Z,79.30
2018-11-21T19:46:35.485Z,83.60
2018-11-21T19:49:05.771Z,82.07
2018-11-21T19:51:39.678Z,92.53
2018-11-21T19:54:13.314Z,86.00
2018-11-21T19:56:43.364Z,78.70
2018-11-21T19:59:14.872Z,84.57
2018-11-21T20:01:54.314Z,83.80
2018-11-21T20:04:25.571Z,80.60
2018-11-21T20:06:56.468Z,78.60
2018-11-21T20:09:35.905Z,75.50
2018-11-21T20:12:07.289Z,82.67
2018-11-21T20:14:44.659Z,93.47
2018-11-21T20:17:16.435Z,86.60
2018-11-21T20:19:47.927Z,85.40
2018-11-21T20:22:20.728Z,83.47
2018-11-21T20:24:51.068Z,95.03
2018-11-21T20:27:21.763Z,94.07
2018-11-21T20:29:54.723Z,97.00
2018-11-21T20:32:23.644Z,99.00
2018-11-21T20:34:57.169Z,88.60
2018-11-21T20:37:27.544Z,108.87
2018-11-21T20:40:09.082Z,105.90
2018-11-21T20:42:41.491Z,105.63
2018-11-21T20:45:32.957Z,94.63
2018-11-21T20:48:03.737Z,97.73
2018-11-21T20:50:36.767Z,93.53
2018-11-21T20:53:11.294Z,93.83
2018-11-21T20:55:44.603Z,94.50
2018-11-21T20:58:15.922Z,103.30
